Time;durP1;ratioP1;P1;durP2;ratioP2;P2;SDS_P1;SDS_P2;PMS_P1;PMS_P2;Temp;Humidity;BMP_temperature;BMP_pressure;BME280_temperature;BME280_humidity;BME280_pressure;Samples;Min_cycle;Max_cycle;Signal;HPM_P1;HPM_P2
2022/08/10 00:00:19;;;;;;;5.30;3.28;;;;;;;;;;4997123;28;20041;-64
2022/08/10 00:02:45;;;;;;;2.60;2.40;;;;;;;;;;4985741;28;20484;-64
2022/08/10 00:05:10;;;;;;;2.67;2.45;;;;;;;;;;4996385;28;20022;-64
2022/08/10 00:07:35;;;;;;;3.67;2.80;;;;;;;;;;4985472;28;20022;-64
2022/08/10 00:10:01;;;;;;;2.50;2.30;;;;;;;;;;5003937;28;20053;-63
2022/08/10 00:12:26;;;;;;;2.90;2.60;;;;;;;;;;4997572;28;20030;-64
2022/08/10 00:14:51;;;;;;;3.30;3.10;;;;;;;;;;4996966;28;20030;-64
2022/08/10 00:17:17;;;;;;;2.75;2.55;;;;;;;;;;4997142;28;20519;-63
2022/08/10 00:19:42;;;;;;;6.05;3.83;;;;;;;;;;4999684;28;20042;-64
2022/08/10 00:22:07;;;;;;;2.70;2.50;;;;;;;;;;4996093;28;20037;-63
2022/08/10 00:24:32;;;;;;;4.38;3.20;;;;;;;;;;4997329;28;20043;-64
2022/08/10 00:26:58;;;;;;;3.30;2.92;;;;;;;;;;5005747;28;20061;-64
2022/08/10 00:29:23;;;;;;;3.03;2.80;;;;;;;;;;4983228;28;20057;-64
2022/08/10 00:31:48;;;;;;;4.97;2.58;;;;;;;;;;5000909;28;20116;-64
2022/08/10 00:34:13;;;;;;;2.50;2.30;;;;;;;;;;5002984;28;20045;-63
2022/08/10 00:36:39;;;;;;;3.30;3.10;;;;;;;;;;4999493;28;20037;-63
2022/08/10 00:39:04;;;;;;;4.60;2.30;;;;;;;;;;4999265;28;20038;-63
2022/08/10 00:41:29;;;;;;;2.72;2.53;;;;;;;;;;5000243;28;20045;-64
2022/08/10 00:43:54;;;;;;;3.28;2.70;;;;;;;;;;4983864;28;20391;-63
2022/08/10 00:46:19;;;;;;;2.90;2.70;;;;;;;;;;5006681;28;20322;-64
2022/08/10 00:48:45;;;;;;;4.13;2.60;;;;;;;;;;5004878;28;20124;-63
2022/08/10 00:51:10;;;;;;;2.70;2.42;;;;;;;;;;4999166;28;20068;-64
2022/08/10 00:53:36;;;;;;;6.03;3.20;;;;;;;;;;5004419;28;20443;-63
2022/08/10 00:56:01;;;;;;;3.40;3.10;;;;;;;;;;5005391;28;20235;-63
2022/08/10 00:58:26;;;;;;;3.92;2.45;;;;;;;;;;5001093;28;20068;-64
2022/08/10 01:00:52;;;;;;;3.85;2.60;;;;;;;;;;5000894;28;20140;-63
2022/08/10 01:03:17;;;;;;;4.63;2.92;;;;;;;;;;5003072;28;20026;-63
2022/08/10 01:05:50;;;;;;;3.92;2.75;;;;;;;;;;5000732;28;20033;-64
2022/08/10 01:08:36;;;;;;;2.97;2.78;;;;;;;;;;4999478;28;20046;-62
2022/08/10 01:11:01;;;;;;;;;;;;;;;;;;5000386;28;20441;-63
2022/08/10 01:13:50;;;;;;;4.13;2.70;;;;;;;;;;5000164;28;20416;-63
2022/08/10 01:16:18;;;;;;;3.28;2.53;;;;;;;;;;5005435;28;20038;-63
2022/08/10 01:18:55;;;;;;;3.92;2.45;;;;;;;;;;4999634;28;20026;-63
2022/08/10 01:21:31;;;;;;;3.20;2.33;;;;;;;;;;4984299;28;20552;-63
2022/08/10 01:24:00;;;;;;;3.08;2.80;;;;;;;;;;4976397;28;20642;-62
2022/08/10 01:26:44;;;;;;;2.72;2.53;;;;;;;;;;5000008;28;20026;-63
2022/08/10 01:29:09;;;;;;;3.00;2.75;;;;;;;;;;5001931;28;20088;-63
2022/08/10 01:31:39;;;;;;;3.08;2.67;;;;;;;;;;5002476;28;20267;-62
2022/08/10 01:34:08;;;;;;;2.92;2.60;;;;;;;;;;4998688;28;20029;-64
2022/08/10 01:36:40;;;;;;;3.58;2.70;;;;;;;;;;5003295;28;20029;-63
2022/08/10 01:39:06;;;;;;;3.63;3.00;;;;;;;;;;5000292;28;20833;-63
2022/08/10 01:41:40;;;;;;;3.00;2.80;;;;;;;;;;5001517;28;20042;-63
2022/08/10 01:44:29;;;;;;;3.28;2.67;;;;;;;;;;5000506;28;20025;-64
2022/08/10 01:48:27;;;;;;;3.45;2.72;;;;;;;;;;4983808;28;20045;-65
2022/08/10 01:49:42;;;;;;;2.45;2.28;;;;;;;;;;5006060;28;20022;-63
2022/08/10 01:52:07;;;;;;;3.03;2.50;;;;;;;;;;5004636;28;20588;-63
2022/08/10 01:54:33;;;;;;;5.15;3.28;;;;;;;;;;5005010;28;20058;-63
2022/08/10 01:56:58;;;;;;;5.38;2.88;;;;;;;;;;4983228;28;20489;-63
2022/08/10 01:59:30;;;;;;;4.55;2.30;;;;;;;;;;4997173;28;20026;-64
2022/08/10 02:01:58;;;;;;;8.02;3.20;;;;;;;;;;4997582;28;20080;-60
2022/08/10 02:04:24;;;;;;;3.45;2.35;;;;;;;;;;4998044;28;20387;-62
2022/08/10 02:06:51;;;;;;;3.17;2.30;;;;;;;;;;4981849;28;20087;-62
2022/08/10 02:09:21;;;;;;;4.13;2.72;;;;;;;;;;4998046;28;20032;-59
2022/08/10 02:11:47;;;;;;;3.83;2.63;;;;;;;;;;4998833;28;20079;-62
2022/08/10 02:14:13;;;;;;;2.63;2.28;;;;;;;;;;5004787;28;20125;-62
2022/08/10 02:16:41;;;;;;;2.75;2.58;;;;;;;;;;5003044;28;20026;-61
2022/08/10 02:19:07;;;;;;;3.35;2.47;;;;;;;;;;4998771;28;20030;-61
2022/08/10 02:21:33;;;;;;;3.30;2.70;;;;;;;;;;5000911;28;20096;-62
2022/08/10 02:23:59;;;;;;;3.15;2.55;;;;;;;;;;4997506;28;20033;-61
2022/08/10 02:26:25;;;;;;;6.60;3.85;;;;;;;;;;4998469;28;20022;-61
2022/08/10 02:28:51;;;;;;;3.20;2.53;;;;;;;;;;4998956;28;20050;-61
2022/08/10 02:31:19;;;;;;;3.13;2.70;;;;;;;;;;4978955;28;20149;-65
2022/08/10 02:33:46;;;;;;;4.45;2.67;;;;;;;;;;4983134;28;20208;-67
2022/08/10 02:36:12;;;;;;;4.32;3.17;;;;;;;;;;4981963;28;20026;-68
2022/08/10 02:38:44;;;;;;;4.63;2.75;;;;;;;;;;4977692;28;20583;-66
2022/08/10 02:41:13;;;;;;;3.00;2.63;;;;;;;;;;4979715;28;20034;-68
2022/08/10 02:43:45;;;;;;;3.45;2.90;;;;;;;;;;4983723;28;20022;-68
2022/08/10 02:46:13;;;;;;;5.25;2.70;;;;;;;;;;4979158;28;20031;-69
2022/08/10 02:48:43;;;;;;;3.45;2.85;;;;;;;;;;4976756;28;20018;-68
2022/08/10 02:51:15;;;;;;;4.75;2.85;;;;;;;;;;4978682;28;20029;-67
2022/08/10 02:53:44;;;;;;;3.97;2.47;;;;;;;;;;4982929;28;20026;-68
2022/08/10 02:56:14;;;;;;;3.28;2.97;;;;;;;;;;4982415;28;20603;-68
2022/08/10 02:58:42;;;;;;;3.25;3.03;;;;;;;;;;4976995;28;20023;-68
2022/08/10 03:01:09;;;;;;;3.28;3.03;;;;;;;;;;4978958;28;20074;-69
2022/08/10 03:03:37;;;;;;;3.40;3.10;;;;;;;;;;4977947;28;20113;-68
2022/08/10 03:06:06;;;;;;;4.53;3.08;;;;;;;;;;4976709;28;20022;-69
2022/08/10 03:08:35;;;;;;;4.85;2.80;;;;;;;;;;4977860;28;20034;-69
2022/08/10 03:11:01;;;;;;;4.65;2.83;;;;;;;;;;4984172;28;20038;-69
2022/08/10 03:13:27;;;;;;;2.92;2.63;;;;;;;;;;4971624;28;20354;-69
2022/08/10 03:15:54;;;;;;;4.05;3.47;;;;;;;;;;4977669;28;20038;-70
2022/08/10 03:18:21;;;;;;;3.85;3.10;;;;;;;;;;4976528;28;20713;-70
2022/08/10 03:20:47;;;;;;;4.18;2.95;;;;;;;;;;4977554;28;20564;-70
2022/08/10 03:23:15;;;;;;;7.25;2.72;;;;;;;;;;4995481;28;20032;-69
2022/08/10 03:25:42;;;;;;;4.18;2.83;;;;;;;;;;4981414;28;20030;-66
2022/08/10 03:28:08;;;;;;;4.05;2.67;;;;;;;;;;4978842;28;20049;-66
2022/08/10 03:30:33;;;;;;;6.93;3.08;;;;;;;;;;4997240;28;20472;-66
2022/08/10 03:33:00;;;;;;;3.38;3.00;;;;;;;;;;4994243;28;20026;-65
2022/08/10 03:35:28;;;;;;;3.10;2.90;;;;;;;;;;4978492;28;20033;-66
2022/08/10 03:37:53;;;;;;;3.20;2.90;;;;;;;;;;4998506;28;20029;-65
2022/08/10 03:40:19;;;;;;;8.23;3.50;;;;;;;;;;4997162;28;20071;-66
2022/08/10 03:42:46;;;;;;;3.83;2.97;;;;;;;;;;4998088;28;20088;-65
2022/08/10 03:45:11;;;;;;;3.10;2.80;;;;;;;;;;4996427;28;20546;-66
2022/08/10 03:47:38;;;;;;;3.08;2.88;;;;;;;;;;4993677;28;20061;-66
2022/08/10 03:50:03;;;;;;;3.22;2.92;;;;;;;;;;4996633;28;20021;-65
2022/08/10 03:52:29;;;;;;;3.45;2.97;;;;;;;;;;5002019;28;20120;-65
2022/08/10 03:54:54;;;;;;;4.65;3.15;;;;;;;;;;4985843;28;20093;-66
2022/08/10 03:57:20;;;;;;;3.83;3.53;;;;;;;;;;4995493;28;20113;-66
2022/08/10 03:59:46;;;;;;;2.95;2.72;;;;;;;;;;4984426;28;20321;-66
2022/08/10 04:02:11;;;;;;;3.65;2.88;;;;;;;;;;5002523;28;20037;-65
2022/08/10 04:04:36;;;;;;;3.70;3.40;;;;;;;;;;4998156;28;20021;-66
2022/08/10 04:07:02;;;;;;;3.08;2.85;;;;;;;;;;4996382;28;20084;-65
2022/08/10 04:09:29;;;;;;;3.13;2.83;;;;;;;;;;4996357;28;20603;-66
2022/08/10 04:11:54;;;;;;;3.78;3.30;;;;;;;;;;4997361;28;20113;-66
2022/08/10 04:14:19;;;;;;;4.00;3.40;;;;;;;;;;4998053;28;20395;-64
2022/08/10 04:16:44;;;;;;;3.53;3.22;;;;;;;;;;4999247;28;20041;-66
2022/08/10 04:19:11;;;;;;;4.35;3.22;;;;;;;;;;4997003;28;20034;-64
2022/08/10 04:21:39;;;;;;;3.17;2.92;;;;;;;;;;4996332;28;20528;-64
2022/08/10 04:24:05;;;;;;;3.85;3.13;;;;;;;;;;4996306;28;20022;-64
2022/08/10 04:26:31;;;;;;;4.20;3.33;;;;;;;;;;4999381;28;20030;-66
2022/08/10 04:28:56;;;;;;;3.38;3.08;;;;;;;;;;4995264;28;20049;-66
2022/08/10 04:31:23;;;;;;;4.47;3.83;;;;;;;;;;4998652;28;20030;-64
2022/08/10 04:33:49;;;;;;;3.85;3.47;;;;;;;;;;4999017;28;20029;-63
2022/08/10 04:36:16;;;;;;;5.88;3.22;;;;;;;;;;4996754;28;20455;-64
2022/08/10 04:38:41;;;;;;;9.63;3.40;;;;;;;;;;4998532;28;20426;-64
2022/08/10 04:41:07;;;;;;;8.65;2.97;;;;;;;;;;4995763;28;20034;-66
2022/08/10 04:43:32;;;;;;;4.60;2.90;;;;;;;;;;4998912;28;20472;-64
2022/08/10 04:45:58;;;;;;;6.88;2.85;;;;;;;;;;4995707;28;20034;-64
2022/08/10 04:48:24;;;;;;;3.38;3.08;;;;;;;;;;4978228;28;20034;-66
2022/08/10 04:50:49;;;;;;;7.40;3.35;;;;;;;;;;4995528;28;20053;-65
2022/08/10 04:53:15;;;;;;;4.63;3.10;;;;;;;;;;4996529;28;20113;-65
2022/08/10 04:55:40;;;;;;;3.10;2.78;;;;;;;;;;4995676;28;20068;-65
2022/08/10 04:58:05;;;;;;;3.13;2.92;;;;;;;;;;4995993;28;20026;-64
2022/08/10 05:00:30;;;;;;;3.35;2.45;;;;;;;;;;5000032;28;20943;-64
2022/08/10 05:02:55;;;;;;;4.60;3.05;;;;;;;;;;5003711;28;20026;-66
2022/08/10 05:05:21;;;;;;;3.30;2.75;;;;;;;;;;4981902;28;20030;-66
2022/08/10 05:07:46;;;;;;;11.23;3.00;;;;;;;;;;4994580;28;20566;-66
2022/08/10 05:10:11;;;;;;;3.03;2.75;;;;;;;;;;4999707;28;20022;-64
2022/08/10 05:12:37;;;;;;;4.88;3.25;;;;;;;;;;4996018;28;20113;-64
2022/08/10 05:15:12;;;;;;;6.45;2.95;;;;;;;;;;5000519;28;20033;-65
2022/08/10 05:17:37;;;;;;;3.00;2.80;;;;;;;;;;5002942;28;20387;-66
2022/08/10 05:20:04;;;;;;;3.67;2.92;;;;;;;;;;4976163;28;20038;-65
2022/08/10 05:22:29;;;;;;;4.65;3.15;;;;;;;;;;5001143;28;20034;-68
2022/08/10 05:24:54;;;;;;;8.75;2.78;;;;;;;;;;4998416;28;20033;-65
2022/08/10 05:27:19;;;;;;;3.63;3.10;;;;;;;;;;4975814;28;20026;-66
2022/08/10 05:29:44;;;;;;;3.50;3.10;;;;;;;;;;4980218;28;20060;-66
2022/08/10 05:32:10;;;;;;;5.25;3.55;;;;;;;;;;4997035;28;20039;-66
2022/08/10 05:34:35;;;;;;;4.97;2.92;;;;;;;;;;4972676;28;20030;-66
2022/08/10 05:37:00;;;;;;;3.35;3.03;;;;;;;;;;4981448;28;20258;-66
2022/08/10 05:39:25;;;;;;;3.10;2.90;;;;;;;;;;4993128;28;20467;-66
2022/08/10 05:41:52;;;;;;;6.20;3.55;;;;;;;;;;4979230;28;20031;-65
2022/08/10 05:44:18;;;;;;;5.32;2.65;;;;;;;;;;4984358;28;20042;-65
2022/08/10 05:46:44;;;;;;;4.97;3.60;;;;;;;;;;4983568;28;20034;-65
2022/08/10 05:49:09;;;;;;;3.28;2.88;;;;;;;;;;4994240;28;20116;-64
2022/08/10 05:51:35;;;;;;;4.25;2.53;;;;;;;;;;4984294;28;20472;-66
2022/08/10 05:54:00;;;;;;;4.57;3.08;;;;;;;;;;4978710;28;20041;-65
2022/08/10 05:56:25;;;;;;;3.63;2.85;;;;;;;;;;4996539;28;20033;-65
2022/08/10 05:58:51;;;;;;;7.72;3.15;;;;;;;;;;4980519;28;20097;-66
2022/08/10 06:01:17;;;;;;;5.55;3.20;;;;;;;;;;4995088;28;20076;-65
2022/08/10 06:03:46;;;;;;;4.30;3.22;;;;;;;;;;5000071;28;20036;-65
2022/08/10 06:08:58;;;;;;;3.88;2.72;;;;;;;;;;4983971;28;20091;-67
2022/08/10 06:11:26;;;;;;;4.40;3.25;;;;;;;;;;4980002;28;20038;-65
2022/08/10 06:16:36;;;;;;;8.50;3.93;;;;;;;;;;4979017;28;20046;-65
2022/08/10 06:19:02;;;;;;;6.03;3.20;;;;;;;;;;4982160;28;20250;-65
2022/08/10 06:21:27;;;;;;;3.13;3.03;;;;;;;;;;4979949;28;20590;-65
2022/08/10 06:23:53;;;;;;;3.83;3.53;;;;;;;;;;4980496;28;20400;-68
2022/08/10 06:26:19;;;;;;;5.40;3.22;;;;;;;;;;4980745;28;20514;-68
2022/08/10 06:28:46;;;;;;;9.07;3.88;;;;;;;;;;4985230;28;20050;-68
2022/08/10 06:31:12;;;;;;;6.97;3.25;;;;;;;;;;4998976;28;20045;-67
2022/08/10 06:33:38;;;;;;;3.75;3.47;;;;;;;;;;4998845;28;20026;-67
2022/08/10 06:36:05;;;;;;;3.78;3.15;;;;;;;;;;5002312;28;20025;-68
2022/08/10 06:38:31;;;;;;;3.83;3.20;;;;;;;;;;5000702;28;20022;-67
2022/08/10 06:41:01;;;;;;;3.72;3.28;;;;;;;;;;4980599;28;20038;-67
2022/08/10 06:43:27;;;;;;;4.03;2.80;;;;;;;;;;4999313;28;20030;-67
2022/08/10 06:46:07;;;;;;;10.30;4.63;;;;;;;;;;4998832;28;20092;-67
2022/08/10 06:48:40;;;;;;;5.35;3.33;;;;;;;;;;5001856;28;20033;-68
2022/08/10 06:51:06;;;;;;;3.35;2.67;;;;;;;;;;4999443;28;20336;-68
2022/08/10 06:53:40;;;;;;;3.92;2.80;;;;;;;;;;5000033;28;20032;-67
2022/08/10 06:56:09;;;;;;;4.57;2.90;;;;;;;;;;4999102;28;20567;-67
2022/08/10 06:58:38;;;;;;;4.75;2.85;;;;;;;;;;5001487;28;20297;-68
2022/08/10 07:01:05;;;;;;;3.83;2.80;;;;;;;;;;4997429;28;20022;-65
2022/08/10 07:03:33;;;;;;;4.70;3.40;;;;;;;;;;4999994;28;20037;-65
2022/08/10 07:05:59;;;;;;;3.35;2.72;;;;;;;;;;5003637;28;20101;-64
2022/08/10 07:08:26;;;;;;;5.70;2.97;;;;;;;;;;4999855;28;20117;-66
2022/08/10 07:10:52;;;;;;;3.25;2.92;;;;;;;;;;4997870;28;20417;-62
2022/08/10 07:13:18;;;;;;;3.78;3.17;;;;;;;;;;4996998;28;20095;-67
2022/08/10 07:15:44;;;;;;;3.90;2.95;;;;;;;;;;4997461;28;20041;-67
2022/08/10 07:18:10;;;;;;;3.72;3.17;;;;;;;;;;4999145;28;20037;-67
2022/08/10 07:20:36;;;;;;;3.70;2.75;;;;;;;;;;4996731;28;20025;-67
2022/08/10 07:23:01;;;;;;;3.05;2.47;;;;;;;;;;4997915;28;20087;-67
2022/08/10 07:25:27;;;;;;;6.53;2.88;;;;;;;;;;4996984;28;20108;-67
2022/08/10 07:27:54;;;;;;;3.00;2.78;;;;;;;;;;4998383;28;20386;-66
2022/08/10 07:30:19;;;;;;;4.93;3.40;;;;;;;;;;4998821;28;20445;-68
2022/08/10 07:32:47;;;;;;;3.85;3.00;;;;;;;;;;4998342;28;20026;-69
2022/08/10 07:35:13;;;;;;;2.72;2.33;;;;;;;;;;4999625;28;20032;-68
2022/08/10 07:37:40;;;;;;;4.13;2.75;;;;;;;;;;4998441;28;20033;-69
2022/08/10 07:40:06;;;;;;;2.53;2.33;;;;;;;;;;4997127;28;20068;-70
2022/08/10 07:42:33;;;;;;;2.65;2.45;;;;;;;;;;4998571;28;20048;-70
2022/08/10 07:44:58;;;;;;;2.55;2.17;;;;;;;;;;4998627;28;20061;-69
2022/08/10 07:47:27;;;;;;;3.30;3.00;;;;;;;;;;4983645;28;20215;-69
2022/08/10 07:49:55;;;;;;;5.18;2.88;;;;;;;;;;4997994;28;20439;-70
2022/08/10 07:52:20;;;;;;;3.80;2.38;;;;;;;;;;4998192;28;20026;-70
2022/08/10 07:54:47;;;;;;;5.90;3.00;;;;;;;;;;4981161;28;20166;-71
2022/08/10 07:57:17;;;;;;;3.92;2.55;;;;;;;;;;4986193;28;20053;-66
2022/08/10 07:59:44;;;;;;;2.67;2.33;;;;;;;;;;4997576;28;20033;-68
2022/08/10 08:02:16;;;;;;;4.65;2.92;;;;;;;;;;5001321;28;20030;-69
2022/08/10 08:04:42;;;;;;;2.88;2.60;;;;;;;;;;4997436;28;20029;-70
2022/08/10 08:07:07;;;;;;;2.30;2.20;;;;;;;;;;4975340;28;20030;-69
2022/08/10 08:09:34;;;;;;;3.05;2.60;;;;;;;;;;4997118;28;20510;-69
2022/08/10 08:12:00;;;;;;;2.92;2.63;;;;;;;;;;4997479;28;20068;-69
2022/08/10 08:14:26;;;;;;;4.35;3.05;;;;;;;;;;4981993;28;20453;-69
2022/08/10 08:16:52;;;;;;;3.13;2.60;;;;;;;;;;5002563;28;20030;-68
2022/08/10 08:19:18;;;;;;;9.85;2.70;;;;;;;;;;5006311;28;20527;-67
2022/08/10 08:21:43;;;;;;;4.35;2.55;;;;;;;;;;4999085;28;20037;-69
2022/08/10 08:24:09;;;;;;;3.25;2.25;;;;;;;;;;4997411;28;20084;-67
2022/08/10 08:26:35;;;;;;;4.43;3.20;;;;;;;;;;5000953;28;20033;-68
2022/08/10 08:29:01;;;;;;;3.53;2.53;;;;;;;;;;5001838;28;20054;-68
2022/08/10 08:31:27;;;;;;;3.90;3.40;;;;;;;;;;4986106;28;20048;-68
2022/08/10 08:33:53;;;;;;;3.10;2.80;;;;;;;;;;4967147;28;20034;-67
2022/08/10 08:36:18;;;;;;;4.47;2.80;;;;;;;;;;4998175;28;20103;-67
2022/08/10 08:38:44;;;;;;;4.05;3.28;;;;;;;;;;4979474;28;20519;-68
2022/08/10 08:41:13;;;;;;;6.80;3.17;;;;;;;;;;4973650;28;20033;-67
2022/08/10 08:43:44;;;;;;;3.38;2.95;;;;;;;;;;5002647;28;20107;-68
2022/08/10 08:46:27;;;;;;;3.35;2.67;;;;;;;;;;4997962;28;20060;-69
2022/08/10 08:49:06;;;;;;;3.40;2.80;;;;;;;;;;5002512;28;20631;-68
2022/08/10 08:51:50;;;;;;;5.18;2.55;;;;;;;;;;5000365;28;20091;-69
2022/08/10 08:54:34;;;;;;;5.67;2.40;;;;;;;;;;5002909;28;20080;-68
2022/08/10 08:57:03;;;;;;;4.27;2.73;;;;;;;;;;5000019;28;20253;-68
2022/08/10 08:59:28;;;;;;;3.25;3.03;;;;;;;;;;5002823;28;20017;-69
2022/08/10 09:02:13;;;;;;;3.70;2.78;;;;;;;;;;4999283;28;20044;-68
2022/08/10 09:04:53;;;;;;;3.30;2.72;;;;;;;;;;4982669;28;20037;-69
2022/08/10 09:07:33;;;;;;;3.33;3.05;;;;;;;;;;4999057;28;20480;-68
2022/08/10 09:10:03;;;;;;;3.97;3.67;;;;;;;;;;4999943;28;20033;-68
2022/08/10 09:12:28;;;;;;;8.68;6.38;;;;;;;;;;5004112;28;20486;-68
2022/08/10 09:15:00;;;;;;;162.20;86.15;;;;;;;;;;5004979;28;20034;-69
2022/08/10 09:17:26;;;;;;;8.10;5.13;;;;;;;;;;4997796;28;20029;-69
2022/08/10 09:19:51;;;;;;;4.28;3.65;;;;;;;;;;4998806;28;20022;-69
2022/08/10 09:22:49;;;;;;;4.15;3.58;;;;;;;;;;4999655;28;20407;-69
2022/08/10 09:25:20;;;;;;;4.28;2.97;;;;;;;;;;4968390;28;20532;-69
2022/08/10 09:27:46;;;;;;;5.68;3.28;;;;;;;;;;4999213;28;20030;-70
2022/08/10 09:30:15;;;;;;;5.30;3.50;;;;;;;;;;5000322;28;20136;-70
2022/08/10 09:33:03;;;;;;;3.65;3.30;;;;;;;;;;4999694;28;20026;-69
2022/08/10 09:35:47;;;;;;;4.68;3.50;;;;;;;;;;4989046;28;20034;-69
2022/08/10 09:38:18;;;;;;;2.80;2.60;;;;;;;;;;4999657;28;20036;-68
2022/08/10 09:40:56;;;;;;;6.30;3.28;;;;;;;;;;4999590;28;20049;-69
2022/08/10 09:43:40;;;;;;;3.60;3.05;;;;;;;;;;4982661;28;20456;-68
2022/08/10 09:46:21;;;;;;;4.45;3.13;;;;;;;;;;5000116;28;20045;-69
2022/08/10 09:48:50;;;;;;;5.03;3.28;;;;;;;;;;5001854;28;20033;-70
2022/08/10 09:51:33;;;;;;;3.88;3.50;;;;;;;;;;4999673;28;20185;-71
2022/08/10 09:54:14;;;;;;;4.38;3.13;;;;;;;;;;5002350;28;20403;-71
2022/08/10 09:56:46;;;;;;;3.50;3.20;;;;;;;;;;5000570;28;20034;-70
2022/08/10 09:59:25;;;;;;;5.70;3.42;;;;;;;;;;4999548;28;20053;-70
2022/08/10 10:01:52;;;;;;;4.80;4.35;;;;;;;;;;5005522;28;20033;-69
2022/08/10 10:04:24;;;;;;;3.85;3.33;;;;;;;;;;5006670;28;20161;-68
2022/08/10 10:06:58;;;;;;;3.92;2.95;;;;;;;;;;5005848;28;20423;-66
2022/08/10 10:09:29;;;;;;;3.38;3.08;;;;;;;;;;5001723;28;20030;-70
2022/08/10 10:12:06;;;;;;;3.35;3.15;;;;;;;;;;4998551;28;20085;-69
2022/08/10 10:17:46;;;;;;;5.65;3.25;;;;;;;;;;4999172;28;20040;-70
2022/08/10 10:20:35;;;;;;;5.63;3.42;;;;;;;;;;5001205;28;20353;-69
2022/08/10 10:23:05;;;;;;;4.00;3.03;;;;;;;;;;4921419;29;20051;-67
2022/08/10 10:25:36;;;;;;;4.35;3.95;;;;;;;;;;4921454;29;20398;-67
2022/08/10 10:28:19;;;;;;;4.10;2.72;;;;;;;;;;4920688;29;20601;-67
2022/08/10 10:31:03;;;;;;;5.20;3.15;;;;;;;;;;4921160;29;20877;-68
2022/08/10 10:33:47;;;;;;;3.38;3.15;;;;;;;;;;4920407;29;20079;-69
2022/08/10 10:36:14;;;;;;;6.20;3.08;;;;;;;;;;4905269;29;20122;-71
2022/08/10 10:38:40;;;;;;;4.50;3.50;;;;;;;;;;4921765;29;20492;-68
2022/08/10 10:41:24;;;;;;;3.80;3.50;;;;;;;;;;4921846;29;20055;-68
2022/08/10 10:43:57;;;;;;;4.03;3.28;;;;;;;;;;4920689;29;20525;-68
2022/08/10 10:46:41;;;;;;;3.08;2.88;;;;;;;;;;4920818;29;20102;-69
2022/08/10 10:49:44;;;;;;;3.30;3.00;;;;;;;;;;4920899;29;20035;-68
2022/08/10 10:52:12;;;;;;;3.65;3.33;;;;;;;;;;4881995;29;20452;-68
2022/08/10 10:54:40;;;;;;;6.35;3.13;;;;;;;;;;4884302;29;20040;-67
2022/08/10 10:57:27;;;;;;;3.75;2.85;;;;;;;;;;4882575;29;20931;-67
2022/08/10 10:59:52;;;;;;;3.40;3.10;;;;;;;;;;4903953;29;20048;-67
2022/08/10 11:02:18;;;;;;;3.00;2.50;;;;;;;;;;4920124;29;20602;-67
2022/08/10 11:04:51;;;;;;;4.90;3.70;;;;;;;;;;4917445;29;20546;-68
2022/08/10 11:07:23;;;;;;;3.53;3.30;;;;;;;;;;4918229;29;20031;-67
2022/08/10 11:09:57;;;;;;;3.53;3.15;;;;;;;;;;4924008;29;20047;-67
2022/08/10 11:12:28;;;;;;;3.22;3.03;;;;;;;;;;4919830;29;20110;-67
2022/08/10 11:14:59;;;;;;;5.18;3.50;;;;;;;;;;4901498;29;20040;-68
2022/08/10 11:17:27;;;;;;;4.07;3.22;;;;;;;;;;4915684;29;20475;-68
2022/08/10 11:19:52;;;;;;;4.00;3.60;;;;;;;;;;4917218;29;20032;-67
2022/08/10 11:22:23;;;;;;;3.25;2.95;;;;;;;;;;4930615;28;20596;-68
2022/08/10 11:24:51;;;;;;;4.90;3.20;;;;;;;;;;4977099;28;20552;-67
2022/08/10 11:27:37;;;;;;;4.65;4.10;;;;;;;;;;4977947;28;20027;-67
2022/08/10 11:30:07;;;;;;;4.65;3.35;;;;;;;;;;4998418;28;20062;-68
2022/08/10 11:32:51;;;;;;;3.40;3.20;;;;;;;;;;4996080;28;20475;-68
2022/08/10 11:35:17;;;;;;;4.00;3.70;;;;;;;;;;4997301;28;20223;-68
2022/08/10 11:37:47;;;;;;;3.10;2.90;;;;;;;;;;4996690;28;20917;-69
2022/08/10 11:40:32;;;;;;;3.97;3.10;;;;;;;;;;4979288;28;20478;-68
2022/08/10 11:43:05;;;;;;;3.63;3.08;;;;;;;;;;4995656;28;20054;-69
2022/08/10 11:45:34;;;;;;;3.30;3.10;;;;;;;;;;4996967;28;20136;-68
2022/08/10 11:48:08;;;;;;;3.80;3.55;;;;;;;;;;4997538;28;20076;-68
2022/08/10 11:50:36;;;;;;;4.75;3.55;;;;;;;;;;4996447;28;20164;-68
2022/08/10 11:53:08;;;;;;;3.90;3.55;;;;;;;;;;5001261;28;20087;-68
2022/08/10 11:55:34;;;;;;;3.97;3.65;;;;;;;;;;4996493;28;20033;-69
2022/08/10 11:59:55;;;;;;;4.80;3.35;;;;;;;;;;4998930;28;20025;-68
2022/08/10 12:00:48;;;;;;;4.30;3.78;;;;;;;;;;4995890;28;20030;-67
2022/08/10 12:03:14;;;;;;;4.13;3.55;;;;;;;;;;4999395;28;20091;-68
2022/08/10 12:05:39;;;;;;;3.60;3.30;;;;;;;;;;4981268;28;20555;-68
2022/08/10 12:08:05;;;;;;;8.27;3.33;;;;;;;;;;4999490;28;20482;-68
2022/08/10 12:10:31;;;;;;;4.63;3.90;;;;;;;;;;4996520;28;20072;-69
2022/08/10 12:13:06;;;;;;;3.88;3.25;;;;;;;;;;4997512;28;20031;-68
2022/08/10 12:15:42;;;;;;;3.58;3.35;;;;;;;;;;4998492;28;20040;-69
2022/08/10 12:18:30;;;;;;;3.72;3.53;;;;;;;;;;4998226;28;20117;-68
2022/08/10 12:21:01;;;;;;;5.22;4.05;;;;;;;;;;4989794;28;20029;-69
2022/08/10 12:23:42;;;;;;;3.95;3.70;;;;;;;;;;4985830;28;20765;-69
2022/08/10 12:26:09;;;;;;;6.55;5.95;;;;;;;;;;5003531;28;20048;-69
2022/08/10 12:28:41;;;;;;;7.45;6.32;;;;;;;;;;5001335;28;20054;-69
2022/08/10 12:31:09;;;;;;;4.88;4.35;;;;;;;;;;5002759;28;20116;-68
2022/08/10 12:33:39;;;;;;;6.03;3.67;;;;;;;;;;5000866;28;20030;-66
2022/08/10 12:36:14;;;;;;;6.03;3.28;;;;;;;;;;4982825;28;20032;-67
2022/08/10 12:38:46;;;;;;;4.95;3.67;;;;;;;;;;5001083;28;20061;-68
2022/08/10 12:41:22;;;;;;;4.35;3.63;;;;;;;;;;5002404;28;20486;-68
2022/08/10 12:43:50;;;;;;;4.97;4.50;;;;;;;;;;5007035;28;20120;-68
2022/08/10 12:46:21;;;;;;;4.13;3.83;;;;;;;;;;5006568;28;20026;-69
2022/08/10 12:49:06;;;;;;;5.20;4.53;;;;;;;;;;5006761;28;20041;-69
2022/08/10 12:51:34;;;;;;;6.13;3.30;;;;;;;;;;5007604;28;20032;-69
2022/08/10 12:54:09;;;;;;;5.13;4.68;;;;;;;;;;5002857;28;20060;-69
2022/08/10 12:56:37;;;;;;;4.65;4.25;;;;;;;;;;4999670;28;20128;-69
2022/08/10 12:59:09;;;;;;;4.57;3.55;;;;;;;;;;5002368;28;20053;-69
2022/08/10 13:01:37;;;;;;;5.32;3.53;;;;;;;;;;5000042;28;20060;-69
2022/08/10 13:04:07;;;;;;;4.38;4.07;;;;;;;;;;5003732;28;20022;-66
2022/08/10 13:06:32;;;;;;;4.30;3.90;;;;;;;;;;5000388;28;20092;-67
2022/08/10 13:09:07;;;;;;;3.83;3.38;;;;;;;;;;5001129;28;20453;-68
2022/08/10 13:11:33;;;;;;;3.47;3.22;;;;;;;;;;4999557;28;20078;-67
2022/08/10 13:14:06;;;;;;;4.30;3.83;;;;;;;;;;5001071;28;20034;-68
2022/08/10 13:16:32;;;;;;;5.60;3.37;;;;;;;;;;4999891;28;20478;-61
2022/08/10 13:18:59;;;;;;;4.20;3.90;;;;;;;;;;5000316;28;20411;-66
2022/08/10 13:21:28;;;;;;;8.02;6.65;;;;;;;;;;5004142;28;20030;-66
2022/08/10 13:24:06;;;;;;;14.10;11.60;;;;;;;;;;5000836;28;20022;-67
2022/08/10 13:26:45;;;;;;;7.63;4.13;;;;;;;;;;5003153;28;20467;-66
2022/08/10 13:29:12;;;;;;;4.03;3.80;;;;;;;;;;5000461;28;20058;-66
2022/08/10 13:31:40;;;;;;;4.93;3.90;;;;;;;;;;5005197;28;20052;-66
2022/08/10 13:34:07;;;;;;;4.10;3.80;;;;;;;;;;5002029;28;20026;-66
2022/08/10 13:36:38;;;;;;;4.05;3.65;;;;;;;;;;5000705;28;20033;-67
2022/08/10 13:39:04;;;;;;;3.95;3.53;;;;;;;;;;5006615;28;20354;-67
2022/08/10 13:41:31;;;;;;;3.28;2.97;;;;;;;;;;5007384;28;20034;-70
2022/08/10 13:43:58;;;;;;;5.35;3.53;;;;;;;;;;4999328;28;20021;-68
2022/08/10 13:46:23;;;;;;;3.92;3.60;;;;;;;;;;4999237;28;20038;-67
2022/08/10 13:48:52;;;;;;;3.65;3.35;;;;;;;;;;5000349;28;20025;-69
2022/08/10 13:51:20;;;;;;;4.53;3.53;;;;;;;;;;4999088;28;20029;-69
2022/08/10 13:53:46;;;;;;;3.17;3.00;;;;;;;;;;5002047;28;20022;-70
2022/08/10 13:56:12;;;;;;;4.05;3.85;;;;;;;;;;4998257;28;20033;-71
2022/08/10 13:58:39;;;;;;;7.70;4.40;;;;;;;;;;4998254;28;20109;-71
2022/08/10 14:01:08;;;;;;;3.70;3.50;;;;;;;;;;4998561;28;20030;-70
2022/08/10 14:03:36;;;;;;;5.00;4.57;;;;;;;;;;5002272;28;20076;-70
2022/08/10 14:06:02;;;;;;;3.97;3.58;;;;;;;;;;4980928;28;20339;-71
2022/08/10 14:08:28;;;;;;;3.67;3.45;;;;;;;;;;4983587;28;20108;-70
2022/08/10 14:10:54;;;;;;;4.00;3.70;;;;;;;;;;4999780;28;20025;-71
2022/08/10 14:13:20;;;;;;;4.90;3.83;;;;;;;;;;4999916;28;20030;-71
2022/08/10 14:15:48;;;;;;;5.00;3.42;;;;;;;;;;5001271;28;20045;-71
2022/08/10 14:18:14;;;;;;;3.80;3.47;;;;;;;;;;4999316;28;20029;-71
2022/08/10 14:20:40;;;;;;;4.68;3.70;;;;;;;;;;4978153;28;20469;-70
2022/08/10 14:23:06;;;;;;;3.92;3.63;;;;;;;;;;4998054;28;20030;-70
2022/08/10 14:25:33;;;;;;;4.13;3.20;;;;;;;;;;5000906;28;20052;-70
2022/08/10 14:27:59;;;;;;;3.65;3.45;;;;;;;;;;4997088;28;20056;-72
2022/08/10 14:30:24;;;;;;;3.50;3.20;;;;;;;;;;4999861;28;20369;-70
2022/08/10 14:32:51;;;;;;;4.28;3.88;;;;;;;;;;5000355;28;20087;-62
2022/08/10 14:35:18;;;;;;;3.85;3.28;;;;;;;;;;4975383;28;20026;-68
2022/08/10 14:37:46;;;;;;;3.55;2.95;;;;;;;;;;5002215;28;20459;-69
2022/08/10 14:40:13;;;;;;;5.00;3.95;;;;;;;;;;4998839;28;20097;-68
2022/08/10 14:42:44;;;;;;;3.97;3.65;;;;;;;;;;5000618;28;20400;-68
2022/08/10 14:45:12;;;;;;;3.72;3.28;;;;;;;;;;5003201;28;20317;-68
2022/08/10 14:47:38;;;;;;;3.80;3.58;;;;;;;;;;5005237;28;20026;-68
2022/08/10 14:50:04;;;;;;;3.42;3.22;;;;;;;;;;4986387;28;20045;-69
2022/08/10 14:52:29;;;;;;;3.85;3.50;;;;;;;;;;4997924;28;20026;-69
2022/08/10 14:54:56;;;;;;;3.42;3.17;;;;;;;;;;4998277;28;20061;-68
2022/08/10 14:57:22;;;;;;;6.05;4.05;;;;;;;;;;4998942;28;20050;-68
2022/08/10 14:59:48;;;;;;;4.00;3.72;;;;;;;;;;4997494;28;20578;-68
2022/08/10 15:02:16;;;;;;;4.57;3.15;;;;;;;;;;4998383;28;20207;-68